sensor_id;sensor_type;location;lat;lon;timestamp;P1;durP1;ratioP1;P2;durP2;ratioP2
82779;SDS011;72511;45.120;20.720;2023-12-20T00:04:16;52.58;;;22.45;;
82779;SDS011;72511;45.120;20.720;2023-12-20T00:14:18;63.33;;;28.45;;
82779;SDS011;72511;45.120;20.720;2023-12-20T00:24:19;51.40;;;27.00;;
82779;SDS011;72511;45.120;20.720;2023-12-20T00:34:21;49.47;;;22.55;;
82779;SDS011;72511;45.120;20.720;2023-12-20T00:44:23;42.40;;;19.63;;
82779;SDS011;72511;45.120;20.720;2023-12-20T00:54:25;60.20;;;24.25;;
82779;SDS011;72511;45.120;20.720;2023-12-20T01:04:27;30.77;;;14.18;;
82779;SDS011;72511;45.120;20.720;2023-12-20T01:14:29;31.60;;;14.48;;
82779;SDS011;72511;45.120;20.720;2023-12-20T01:24:31;28.40;;;15.57;;
82779;SDS011;72511;45.120;20.720;2023-12-20T01:34:33;18.35;;;12.98;;
82779;SDS011;72511;45.120;20.720;2023-12-20T01:44:34;19.73;;;12.60;;
82779;SDS011;72511;45.120;20.720;2023-12-20T01:54:36;19.98;;;12.82;;
82779;SDS011;72511;45.120;20.720;2023-12-20T02:04:39;31.05;;;17.23;;
82779;SDS011;72511;45.120;20.720;2023-12-20T02:14:41;26.88;;;16.67;;
82779;SDS011;72511;45.120;20.720;2023-12-20T02:24:42;21.80;;;13.73;;
82779;SDS011;72511;45.120;20.720;2023-12-20T02:34:44;21.60;;;12.77;;
82779;SDS011;72511;45.120;20.720;2023-12-20T02:44:46;29.05;;;16.25;;
82779;SDS011;72511;45.120;20.720;2023-12-20T02:54:47;30.08;;;17.20;;
82779;SDS011;72511;45.120;20.720;2023-12-20T03:34:52;26.85;;;16.02;;
82779;SDS011;72511;45.120;20.720;2023-12-20T03:44:53;25.02;;;13.25;;
82779;SDS011;72511;45.120;20.720;2023-12-20T03:54:54;22.15;;;13.90;;
82779;SDS011;72511;45.120;20.720;2023-12-20T04:04:55;20.38;;;11.18;;
82779;SDS011;72511;45.120;20.720;2023-12-20T04:14:57;20.27;;;10.15;;
82779;SDS011;72511;45.120;20.720;2023-12-20T04:35:00;30.60;;;17.70;;
82779;SDS011;72511;45.120;20.720;2023-12-20T05:25:09;33.00;;;18.30;;
82779;SDS011;72511;45.120;20.720;2023-12-20T05:35:10;29.67;;;16.35;;
82779;SDS011;72511;45.120;20.720;2023-12-20T05:55:13;61.47;;;29.27;;
82779;SDS011;72511;45.120;20.720;2023-12-20T06:15:17;45.42;;;21.58;;
82779;SDS011;72511;45.120;20.720;2023-12-20T06:25:20;72.43;;;34.17;;
82779;SDS011;72511;45.120;20.720;2023-12-20T06:35:23;38.53;;;24.33;;
82779;SDS011;72511;45.120;20.720;2023-12-20T06:45:25;34.03;;;16.60;;
82779;SDS011;72511;45.120;20.720;2023-12-20T06:55:26;30.80;;;17.33;;
82779;SDS011;72511;45.120;20.720;2023-12-20T07:05:28;69.38;;;36.10;;
82779;SDS011;72511;45.120;20.720;2023-12-20T07:15:29;31.80;;;16.70;;
82779;SDS011;72511;45.120;20.720;2023-12-20T07:35:35;26.77;;;15.90;;
82779;SDS011;72511;45.120;20.720;2023-12-20T07:45:37;34.40;;;19.70;;
82779;SDS011;72511;45.120;20.720;2023-12-20T07:55:39;55.42;;;26.40;;
82779;SDS011;72511;45.120;20.720;2023-12-20T08:05:40;49.85;;;25.13;;
82779;SDS011;72511;45.120;20.720;2023-12-20T08:15:42;34.15;;;18.30;;
82779;SDS011;72511;45.120;20.720;2023-12-20T08:25:44;90.60;;;40.05;;
82779;SDS011;72511;45.120;20.720;2023-12-20T13:15:18;70.90;;;37.33;;
82779;SDS011;72511;45.120;20.720;2023-12-20T13:25:20;100.07;;;50.72;;
82779;SDS011;72511;45.120;20.720;2023-12-20T13:35:21;90.53;;;48.47;;
82779;SDS011;72511;45.120;20.720;2023-12-20T13:45:24;87.82;;;50.55;;
82779;SDS011;72511;45.120;20.720;2023-12-20T13:55:27;71.55;;;40.65;;
82779;SDS011;72511;45.120;20.720;2023-12-20T14:05:33;106.32;;;51.35;;
82779;SDS011;72511;45.120;20.720;2023-12-20T14:15:38;64.55;;;37.20;;
82779;SDS011;72511;45.120;20.720;2023-12-20T14:25:41;87.95;;;42.47;;
82779;SDS011;72511;45.120;20.720;2023-12-20T14:35:46;107.25;;;56.55;;
82779;SDS011;72511;45.120;20.720;2023-12-20T14:45:50;66.10;;;35.40;;
82779;SDS011;72511;45.120;20.720;2023-12-20T14:55:51;71.93;;;37.88;;
82779;SDS011;72511;45.120;20.720;2023-12-20T15:05:53;74.20;;;41.47;;
82779;SDS011;72511;45.120;20.720;2023-12-20T15:15:55;74.47;;;38.70;;
82779;SDS011;72511;45.120;20.720;2023-12-20T15:25:57;65.50;;;36.03;;
82779;SDS011;72511;45.120;20.720;2023-12-20T15:35:58;78.07;;;41.25;;
82779;SDS011;72511;45.120;20.720;2023-12-20T15:46:00;82.68;;;39.88;;
82779;SDS011;72511;45.120;20.720;2023-12-20T15:56:03;74.07;;;37.45;;
82779;SDS011;72511;45.120;20.720;2023-12-20T16:06:05;72.65;;;34.15;;
82779;SDS011;72511;45.120;20.720;2023-12-20T16:16:07;91.38;;;39.35;;
82779;SDS011;72511;45.120;20.720;2023-12-20T16:26:11;63.70;;;30.40;;
82779;SDS011;72511;45.120;20.720;2023-12-20T16:36:13;69.20;;;31.80;;
82779;SDS011;72511;45.120;20.720;2023-12-20T16:46:16;87.47;;;35.45;;
82779;SDS011;72511;45.120;20.720;2023-12-20T17:06:20;106.63;;;40.63;;
82779;SDS011;72511;45.120;20.720;2023-12-20T17:16:21;96.95;;;43.70;;
82779;SDS011;72511;45.120;20.720;2023-12-20T17:26:22;204.48;;;72.88;;
82779;SDS011;72511;45.120;20.720;2023-12-20T17:36:24;205.30;;;67.40;;
82779;SDS011;72511;45.120;20.720;2023-12-20T17:46:27;128.88;;;44.08;;
82779;SDS011;72511;45.120;20.720;2023-12-20T17:56:28;85.35;;;35.58;;
82779;SDS011;72511;45.120;20.720;2023-12-20T18:06:31;60.90;;;27.67;;
82779;SDS011;72511;45.120;20.720;2023-12-20T18:16:32;70.22;;;26.52;;
82779;SDS011;72511;45.120;20.720;2023-12-20T18:26:33;68.43;;;29.10;;
82779;SDS011;72511;45.120;20.720;2023-12-20T18:36:36;57.35;;;27.85;;
82779;SDS011;72511;45.120;20.720;2023-12-20T18:46:38;81.63;;;32.55;;
82779;SDS011;72511;45.120;20.720;2023-12-20T18:56:39;108.32;;;44.00;;
82779;SDS011;72511;45.120;20.720;2023-12-20T19:06:43;85.63;;;34.90;;
82779;SDS011;72511;45.120;20.720;2023-12-20T19:16:45;90.07;;;34.70;;
82779;SDS011;72511;45.120;20.720;2023-12-20T19:26:47;83.43;;;33.33;;
82779;SDS011;72511;45.120;20.720;2023-12-20T19:36:49;120.88;;;38.35;;
82779;SDS011;72511;45.120;20.720;2023-12-20T19:46:50;85.82;;;30.85;;
82779;SDS011;72511;45.120;20.720;2023-12-20T19:56:52;100.90;;;27.90;;
82779;SDS011;72511;45.120;20.720;2023-12-20T20:06:53;223.98;;;81.78;;
82779;SDS011;72511;45.120;20.720;2023-12-20T20:16:55;167.70;;;54.97;;
82779;SDS011;72511;45.120;20.720;2023-12-20T20:26:56;170.55;;;46.90;;
82779;SDS011;72511;45.120;20.720;2023-12-20T20:36:57;246.80;;;81.60;;
82779;SDS011;72511;45.120;20.720;2023-12-20T20:46:59;287.33;;;107.82;;
82779;SDS011;72511;45.120;20.720;2023-12-20T20:57:02;776.00;;;366.30;;
82779;SDS011;72511;45.120;20.720;2023-12-20T21:07:04;380.65;;;148.18;;
82779;SDS011;72511;45.120;20.720;2023-12-20T21:17:05;628.22;;;293.50;;
82779;SDS011;72511;45.120;20.720;2023-12-20T21:27:07;394.70;;;154.88;;
82779;SDS011;72511;45.120;20.720;2023-12-20T21:37:11;250.00;;;96.85;;
82779;SDS011;72511;45.120;20.720;2023-12-20T21:47:12;165.13;;;69.63;;
82779;SDS011;72511;45.120;20.720;2023-12-20T21:57:14;193.55;;;73.88;;
82779;SDS011;72511;45.120;20.720;2023-12-20T22:07:15;123.57;;;49.70;;
82779;SDS011;72511;45.120;20.720;2023-12-20T22:17:17;148.30;;;61.17;;
82779;SDS011;72511;45.120;20.720;2023-12-20T22:27:18;127.93;;;49.60;;
82779;SDS011;72511;45.120;20.720;2023-12-20T22:37:19;101.72;;;40.10;;
82779;SDS011;72511;45.120;20.720;2023-12-20T22:47:21;112.32;;;45.88;;
82779;SDS011;72511;45.120;20.720;2023-12-20T22:57:24;124.53;;;49.65;;
82779;SDS011;72511;45.120;20.720;2023-12-20T23:07:26;110.57;;;43.70;;
82779;SDS011;72511;45.120;20.720;2023-12-20T23:17:27;90.20;;;40.50;;
82779;SDS011;72511;45.120;20.720;2023-12-20T23:27:29;122.38;;;48.90;;
82779;SDS011;72511;45.120;20.720;2023-12-20T23:37:31;86.60;;;35.90;;
82779;SDS011;72511;45.120;20.720;2023-12-20T23:47:33;148.23;;;58.50;;
82779;SDS011;72511;45.120;20.720;2023-12-20T23:57:35;95.32;;;41.33;;
